sensor_id;sensor_type;location;lat;lon;timestamp;P1;durP1;ratioP1;P2;durP2;ratioP2
46415;SDS011;32620;51.704;7.822;2024-01-10T00:01:07;32.42;;;10.70;;
46415;SDS011;32620;51.704;7.822;2024-01-10T00:03:32;33.35;;;11.05;;
46415;SDS011;32620;51.704;7.822;2024-01-10T00:05:58;25.13;;;9.30;;
46415;SDS011;32620;51.704;7.822;2024-01-10T00:08:23;25.80;;;10.15;;
46415;SDS011;32620;51.704;7.822;2024-01-10T00:10:49;20.88;;;9.32;;
46415;SDS011;32620;51.704;7.822;2024-01-10T00:13:16;22.52;;;8.88;;
46415;SDS011;32620;51.704;7.822;2024-01-10T00:15:42;17.95;;;8.88;;
46415;SDS011;32620;51.704;7.822;2024-01-10T00:18:08;26.25;;;8.90;;
46415;SDS011;32620;51.704;7.822;2024-01-10T00:20:33;20.73;;;9.25;;
46415;SDS011;32620;51.704;7.822;2024-01-10T00:22:59;26.77;;;9.68;;
46415;SDS011;32620;51.704;7.822;2024-01-10T00:25:24;21.67;;;8.30;;
46415;SDS011;32620;51.704;7.822;2024-01-10T00:27:50;20.90;;;9.25;;
46415;SDS011;32620;51.704;7.822;2024-01-10T00:30:15;19.63;;;8.75;;
46415;SDS011;32620;51.704;7.822;2024-01-10T00:32:41;20.80;;;8.75;;
46415;SDS011;32620;51.704;7.822;2024-01-10T00:35:06;19.15;;;8.95;;
46415;SDS011;32620;51.704;7.822;2024-01-10T00:37:32;20.13;;;9.13;;
46415;SDS011;32620;51.704;7.822;2024-01-10T00:39:57;27.67;;;9.25;;
46415;SDS011;32620;51.704;7.822;2024-01-10T00:42:23;21.90;;;9.48;;
46415;SDS011;32620;51.704;7.822;2024-01-10T00:44:48;21.17;;;9.38;;
46415;SDS011;32620;51.704;7.822;2024-01-10T00:47:14;21.55;;;8.90;;
46415;SDS011;32620;51.704;7.822;2024-01-10T00:49:40;28.67;;;9.95;;
46415;SDS011;32620;51.704;7.822;2024-01-10T00:52:05;17.88;;;9.23;;
46415;SDS011;32620;51.704;7.822;2024-01-10T00:54:31;23.83;;;8.95;;
46415;SDS011;32620;51.704;7.822;2024-01-10T00:56:56;24.98;;;10.02;;
46415;SDS011;32620;51.704;7.822;2024-01-10T00:59:21;21.00;;;9.50;;
46415;SDS011;32620;51.704;7.822;2024-01-10T01:01:47;22.15;;;9.27;;
46415;SDS011;32620;51.704;7.822;2024-01-10T01:04:13;26.83;;;10.45;;
46415;SDS011;32620;51.704;7.822;2024-01-10T01:06:38;25.42;;;11.45;;
46415;SDS011;32620;51.704;7.822;2024-01-10T01:09:04;22.02;;;10.13;;
46415;SDS011;32620;51.704;7.822;2024-01-10T01:11:29;22.17;;;9.73;;
46415;SDS011;32620;51.704;7.822;2024-01-10T01:13:55;26.55;;;11.60;;
46415;SDS011;32620;51.704;7.822;2024-01-10T01:16:20;28.98;;;11.07;;
46415;SDS011;32620;51.704;7.822;2024-01-10T01:18:46;25.20;;;10.68;;
46415;SDS011;32620;51.704;7.822;2024-01-10T01:21:11;25.63;;;10.68;;
46415;SDS011;32620;51.704;7.822;2024-01-10T01:23:37;21.40;;;9.85;;
46415;SDS011;32620;51.704;7.822;2024-01-10T01:26:02;22.90;;;10.18;;
46415;SDS011;32620;51.704;7.822;2024-01-10T01:28:29;20.13;;;9.35;;
46415;SDS011;32620;51.704;7.822;2024-01-10T01:30:54;21.95;;;9.38;;
46415;SDS011;32620;51.704;7.822;2024-01-10T01:33:20;22.33;;;8.02;;
46415;SDS011;32620;51.704;7.822;2024-01-10T01:35:46;23.90;;;9.45;;
46415;SDS011;32620;51.704;7.822;2024-01-10T01:38:11;25.08;;;9.57;;
46415;SDS011;32620;51.704;7.822;2024-01-10T01:40:37;19.85;;;9.07;;
46415;SDS011;32620;51.704;7.822;2024-01-10T01:43:17;24.10;;;9.60;;
46415;SDS011;32620;51.704;7.822;2024-01-10T01:45:43;19.60;;;8.32;;
46415;SDS011;32620;51.704;7.822;2024-01-10T01:48:09;27.20;;;10.52;;
46415;SDS011;32620;51.704;7.822;2024-01-10T01:50:35;23.35;;;9.80;;
46415;SDS011;32620;51.704;7.822;2024-01-10T01:53:00;23.65;;;9.05;;
46415;SDS011;32620;51.704;7.822;2024-01-10T01:55:26;24.60;;;9.20;;
46415;SDS011;32620;51.704;7.822;2024-01-10T01:57:51;24.20;;;9.10;;
46415;SDS011;32620;51.704;7.822;2024-01-10T02:00:17;20.67;;;9.07;;
46415;SDS011;32620;51.704;7.822;2024-01-10T02:02:43;25.05;;;9.38;;
46415;SDS011;32620;51.704;7.822;2024-01-10T02:05:09;27.20;;;10.30;;
46415;SDS011;32620;51.704;7.822;2024-01-10T02:07:35;20.63;;;8.73;;
46415;SDS011;32620;51.704;7.822;2024-01-10T02:10:00;22.27;;;9.18;;
46415;SDS011;32620;51.704;7.822;2024-01-10T02:12:26;20.92;;;8.82;;
46415;SDS011;32620;51.704;7.822;2024-01-10T02:14:51;23.85;;;9.15;;
46415;SDS011;32620;51.704;7.822;2024-01-10T02:17:17;23.40;;;9.88;;
46415;SDS011;32620;51.704;7.822;2024-01-10T02:19:43;25.15;;;8.77;;
46415;SDS011;32620;51.704;7.822;2024-01-10T02:22:08;19.15;;;8.52;;
46415;SDS011;32620;51.704;7.822;2024-01-10T02:24:36;21.00;;;8.60;;
46415;SDS011;32620;51.704;7.822;2024-01-10T02:27:01;20.55;;;8.02;;
46415;SDS011;32620;51.704;7.822;2024-01-10T02:29:27;17.73;;;6.47;;
46415;SDS011;32620;51.704;7.822;2024-01-10T02:31:53;22.00;;;8.93;;
46415;SDS011;32620;51.704;7.822;2024-01-10T02:34:18;20.80;;;9.57;;
46415;SDS011;32620;51.704;7.822;2024-01-10T02:36:44;23.33;;;11.23;;
46415;SDS011;32620;51.704;7.822;2024-01-10T02:39:10;25.20;;;9.63;;
46415;SDS011;32620;51.704;7.822;2024-01-10T02:41:36;25.50;;;8.93;;
46415;SDS011;32620;51.704;7.822;2024-01-10T02:44:01;24.80;;;8.73;;
46415;SDS011;32620;51.704;7.822;2024-01-10T02:46:27;22.95;;;9.35;;
46415;SDS011;32620;51.704;7.822;2024-01-10T02:48:53;24.70;;;10.18;;
46415;SDS011;32620;51.704;7.822;2024-01-10T02:51:20;25.30;;;9.90;;
46415;SDS011;32620;51.704;7.822;2024-01-10T02:53:46;26.90;;;9.50;;
46415;SDS011;32620;51.704;7.822;2024-01-10T02:56:11;24.80;;;9.88;;
46415;SDS011;32620;51.704;7.822;2024-01-10T02:58:37;24.80;;;8.98;;
46415;SDS011;32620;51.704;7.822;2024-01-10T03:01:02;26.75;;;9.98;;
46415;SDS011;32620;51.704;7.822;2024-01-10T03:03:28;23.23;;;10.05;;
46415;SDS011;32620;51.704;7.822;2024-01-10T03:05:54;21.92;;;9.88;;
46415;SDS011;32620;51.704;7.822;2024-01-10T03:08:19;24.58;;;10.20;;
46415;SDS011;32620;51.704;7.822;2024-01-10T03:10:45;23.30;;;9.90;;
46415;SDS011;32620;51.704;7.822;2024-01-10T03:13:10;23.80;;;9.52;;
46415;SDS011;32620;51.704;7.822;2024-01-10T03:15:36;23.27;;;9.88;;
46415;SDS011;32620;51.704;7.822;2024-01-10T03:18:01;22.92;;;10.18;;
46415;SDS011;32620;51.704;7.822;2024-01-10T03:20:27;22.23;;;9.30;;
46415;SDS011;32620;51.704;7.822;2024-01-10T03:22:52;25.45;;;10.00;;
46415;SDS011;32620;51.704;7.822;2024-01-10T03:25:18;20.25;;;8.95;;
46415;SDS011;32620;51.704;7.822;2024-01-10T03:27:43;23.67;;;9.57;;
46415;SDS011;32620;51.704;7.822;2024-01-10T03:30:09;23.75;;;9.80;;
46415;SDS011;32620;51.704;7.822;2024-01-10T03:32:35;24.92;;;9.57;;
46415;SDS011;32620;51.704;7.822;2024-01-10T03:35:00;25.58;;;9.93;;
46415;SDS011;32620;51.704;7.822;2024-01-10T03:37:26;21.73;;;8.95;;
46415;SDS011;32620;51.704;7.822;2024-01-10T03:39:51;21.25;;;9.23;;
46415;SDS011;32620;51.704;7.822;2024-01-10T03:42:17;22.73;;;9.07;;
46415;SDS011;32620;51.704;7.822;2024-01-10T03:44:42;18.02;;;8.40;;
46415;SDS011;32620;51.704;7.822;2024-01-10T03:47:08;20.85;;;9.05;;
46415;SDS011;32620;51.704;7.822;2024-01-10T03:49:34;20.60;;;8.00;;
46415;SDS011;32620;51.704;7.822;2024-01-10T03:51:59;20.50;;;8.32;;
46415;SDS011;32620;51.704;7.822;2024-01-10T03:54:25;21.88;;;8.93;;
46415;SDS011;32620;51.704;7.822;2024-01-10T03:56:50;21.50;;;8.75;;
46415;SDS011;32620;51.704;7.822;2024-01-10T03:59:16;25.20;;;9.75;;
46415;SDS011;32620;51.704;7.822;2024-01-10T04:01:41;20.67;;;8.80;;
46415;SDS011;32620;51.704;7.822;2024-01-10T04:04:07;21.10;;;7.95;;
46415;SDS011;32620;51.704;7.822;2024-01-10T04:06:32;22.17;;;9.02;;
46415;SDS011;32620;51.704;7.822;2024-01-10T04:08:59;19.63;;;8.35;;
46415;SDS011;32620;51.704;7.822;2024-01-10T04:11:25;21.23;;;8.77;;
46415;SDS011;32620;51.704;7.822;2024-01-10T04:13:51;20.40;;;8.55;;
46415;SDS011;32620;51.704;7.822;2024-01-10T04:16:16;24.48;;;9.63;;
46415;SDS011;32620;51.704;7.822;2024-01-10T04:18:42;16.20;;;7.88;;
46415;SDS011;32620;51.704;7.822;2024-01-10T04:21:07;22.33;;;9.88;;
46415;SDS011;32620;51.704;7.822;2024-01-10T04:23:33;21.95;;;9.05;;
46415;SDS011;32620;51.704;7.822;2024-01-10T04:26:00;23.15;;;9.75;;
46415;SDS011;32620;51.704;7.822;2024-01-10T04:28:26;28.35;;;11.10;;
46415;SDS011;32620;51.704;7.822;2024-01-10T04:30:52;22.92;;;9.63;;
46415;SDS011;32620;51.704;7.822;2024-01-10T04:33:17;26.67;;;10.25;;
46415;SDS011;32620;51.704;7.822;2024-01-10T04:35:43;24.92;;;10.20;;
46415;SDS011;32620;51.704;7.822;2024-01-10T04:38:08;20.60;;;9.27;;
46415;SDS011;32620;51.704;7.822;2024-01-10T04:40:34;23.52;;;9.60;;
46415;SDS011;32620;51.704;7.822;2024-01-10T04:42:59;21.75;;;9.43;;
46415;SDS011;32620;51.704;7.822;2024-01-10T04:45:25;23.30;;;9.80;;
46415;SDS011;32620;51.704;7.822;2024-01-10T04:47:50;20.83;;;9.55;;
46415;SDS011;32620;51.704;7.822;2024-01-10T04:50:16;25.63;;;10.85;;
46415;SDS011;32620;51.704;7.822;2024-01-10T04:52:41;25.80;;;10.18;;
46415;SDS011;32620;51.704;7.822;2024-01-10T04:55:07;23.80;;;10.10;;
46415;SDS011;32620;51.704;7.822;2024-01-10T04:57:33;30.83;;;11.60;;
46415;SDS011;32620;51.704;7.822;2024-01-10T04:59:58;28.27;;;12.30;;
46415;SDS011;32620;51.704;7.822;2024-01-10T05:02:24;30.90;;;12.15;;
46415;SDS011;32620;51.704;7.822;2024-01-10T05:04:49;28.55;;;12.38;;
46415;SDS011;32620;51.704;7.822;2024-01-10T05:07:15;26.30;;;11.18;;
46415;SDS011;32620;51.704;7.822;2024-01-10T05:09:40;30.23;;;11.18;;
46415;SDS011;32620;51.704;7.822;2024-01-10T05:12:06;26.13;;;10.60;;
46415;SDS011;32620;51.704;7.822;2024-01-10T05:14:32;27.90;;;11.85;;
46415;SDS011;32620;51.704;7.822;2024-01-10T05:16:57;32.58;;;11.80;;
46415;SDS011;32620;51.704;7.822;2024-01-10T05:19:23;29.20;;;11.60;;
46415;SDS011;32620;51.704;7.822;2024-01-10T05:21:48;28.20;;;10.77;;
46415;SDS011;32620;51.704;7.822;2024-01-10T05:24:14;32.03;;;11.57;;
46415;SDS011;32620;51.704;7.822;2024-01-10T05:26:39;27.52;;;11.18;;
46415;SDS011;32620;51.704;7.822;2024-01-10T05:29:05;24.90;;;10.95;;
46415;SDS011;32620;51.704;7.822;2024-01-10T05:31:30;29.42;;;11.13;;
46415;SDS011;32620;51.704;7.822;2024-01-10T05:33:56;29.13;;;11.00;;
46415;SDS011;32620;51.704;7.822;2024-01-10T05:36:22;24.20;;;11.20;;
46415;SDS011;32620;51.704;7.822;2024-01-10T05:38:48;21.25;;;9.07;;
46415;SDS011;32620;51.704;7.822;2024-01-10T05:41:13;24.45;;;10.65;;
46415;SDS011;32620;51.704;7.822;2024-01-10T05:43:39;14.35;;;7.28;;
46415;SDS011;32620;51.704;7.822;2024-01-10T05:46:05;24.05;;;9.95;;
46415;SDS011;32620;51.704;7.822;2024-01-10T05:48:30;17.77;;;8.38;;
46415;SDS011;32620;51.704;7.822;2024-01-10T05:50:57;23.10;;;9.30;;
46415;SDS011;32620;51.704;7.822;2024-01-10T05:53:23;22.23;;;8.45;;
46415;SDS011;32620;51.704;7.822;2024-01-10T05:55:49;21.25;;;9.15;;
46415;SDS011;32620;51.704;7.822;2024-01-10T05:58:16;28.85;;;13.15;;
46415;SDS011;32620;51.704;7.822;2024-01-10T06:00:41;34.67;;;12.73;;
46415;SDS011;32620;51.704;7.822;2024-01-10T06:03:07;26.60;;;11.25;;
46415;SDS011;32620;51.704;7.822;2024-01-10T06:05:32;32.30;;;11.30;;
46415;SDS011;32620;51.704;7.822;2024-01-10T06:07:58;24.00;;;11.57;;
46415;SDS011;32620;51.704;7.822;2024-01-10T06:10:23;28.63;;;12.05;;
46415;SDS011;32620;51.704;7.822;2024-01-10T06:12:49;32.20;;;10.88;;
46415;SDS011;32620;51.704;7.822;2024-01-10T06:15:15;32.63;;;12.65;;
46415;SDS011;32620;51.704;7.822;2024-01-10T06:17:40;27.10;;;12.52;;
46415;SDS011;32620;51.704;7.822;2024-01-10T06:20:06;31.20;;;12.60;;
46415;SDS011;32620;51.704;7.822;2024-01-10T06:22:32;32.47;;;12.23;;
46415;SDS011;32620;51.704;7.822;2024-01-10T06:24:58;33.22;;;12.75;;
46415;SDS011;32620;51.704;7.822;2024-01-10T06:27:24;26.88;;;11.98;;
46415;SDS011;32620;51.704;7.822;2024-01-10T06:29:49;31.05;;;12.25;;
46415;SDS011;32620;51.704;7.822;2024-01-10T06:32:15;25.02;;;11.35;;
46415;SDS011;32620;51.704;7.822;2024-01-10T06:34:40;31.50;;;13.52;;
46415;SDS011;32620;51.704;7.822;2024-01-10T06:37:06;30.67;;;12.30;;
46415;SDS011;32620;51.704;7.822;2024-01-10T06:39:33;29.27;;;12.77;;
46415;SDS011;32620;51.704;7.822;2024-01-10T06:41:58;33.22;;;12.52;;
46415;SDS011;32620;51.704;7.822;2024-01-10T06:44:24;32.72;;;12.27;;
46415;SDS011;32620;51.704;7.822;2024-01-10T06:46:50;34.42;;;13.48;;
46415;SDS011;32620;51.704;7.822;2024-01-10T06:49:16;33.75;;;12.23;;
46415;SDS011;32620;51.704;7.822;2024-01-10T06:51:41;36.50;;;13.20;;
46415;SDS011;32620;51.704;7.822;2024-01-10T06:54:07;32.63;;;13.00;;
46415;SDS011;32620;51.704;7.822;2024-01-10T06:56:33;27.38;;;11.98;;
46415;SDS011;32620;51.704;7.822;2024-01-10T06:59:00;35.22;;;12.35;;
46415;SDS011;32620;51.704;7.822;2024-01-10T07:01:27;34.50;;;13.82;;
46415;SDS011;32620;51.704;7.822;2024-01-10T07:03:53;33.17;;;12.18;;
46415;SDS011;32620;51.704;7.822;2024-01-10T07:06:20;35.03;;;13.73;;
46415;SDS011;32620;51.704;7.822;2024-01-10T07:08:47;30.23;;;12.57;;
46415;SDS011;32620;51.704;7.822;2024-01-10T07:11:14;30.08;;;12.85;;
46415;SDS011;32620;51.704;7.822;2024-01-10T07:13:40;30.80;;;11.95;;
46415;SDS011;32620;51.704;7.822;2024-01-10T07:16:06;33.58;;;12.75;;
46415;SDS011;32620;51.704;7.822;2024-01-10T07:18:33;31.48;;;11.73;;
46415;SDS011;32620;51.704;7.822;2024-01-10T07:20:58;35.28;;;13.77;;
46415;SDS011;32620;51.704;7.822;2024-01-10T07:23:24;37.58;;;13.73;;
46415;SDS011;32620;51.704;7.822;2024-01-10T07:25:50;31.55;;;12.32;;
46415;SDS011;32620;51.704;7.822;2024-01-10T07:28:16;36.08;;;12.90;;
46415;SDS011;32620;51.704;7.822;2024-01-10T07:30:42;35.20;;;14.07;;
46415;SDS011;32620;51.704;7.822;2024-01-10T07:33:09;36.22;;;13.43;;
46415;SDS011;32620;51.704;7.822;2024-01-10T07:35:35;36.90;;;14.48;;
46415;SDS011;32620;51.704;7.822;2024-01-10T07:38:01;37.33;;;14.40;;
46415;SDS011;32620;51.704;7.822;2024-01-10T07:40:26;30.77;;;13.25;;
46415;SDS011;32620;51.704;7.822;2024-01-10T07:42:52;33.10;;;13.75;;
46415;SDS011;32620;51.704;7.822;2024-01-10T07:45:17;32.42;;;13.23;;
46415;SDS011;32620;51.704;7.822;2024-01-10T07:47:43;36.67;;;14.52;;
46415;SDS011;32620;51.704;7.822;2024-01-10T07:50:09;35.92;;;13.98;;
46415;SDS011;32620;51.704;7.822;2024-01-10T07:52:35;47.75;;;16.02;;
46415;SDS011;32620;51.704;7.822;2024-01-10T07:55:01;40.67;;;16.17;;
46415;SDS011;32620;51.704;7.822;2024-01-10T07:57:30;35.35;;;14.30;;
46415;SDS011;32620;51.704;7.822;2024-01-10T07:59:55;40.08;;;15.35;;
46415;SDS011;32620;51.704;7.822;2024-01-10T08:02:21;42.42;;;15.27;;
46415;SDS011;32620;51.704;7.822;2024-01-10T08:04:47;38.83;;;13.82;;
46415;SDS011;32620;51.704;7.822;2024-01-10T08:07:13;38.50;;;14.98;;
46415;SDS011;32620;51.704;7.822;2024-01-10T08:09:38;35.78;;;14.55;;
46415;SDS011;32620;51.704;7.822;2024-01-10T08:12:04;35.65;;;14.40;;
46415;SDS011;32620;51.704;7.822;2024-01-10T08:14:30;38.67;;;15.10;;
46415;SDS011;32620;51.704;7.822;2024-01-10T08:16:57;36.28;;;15.05;;
46415;SDS011;32620;51.704;7.822;2024-01-10T08:19:25;37.72;;;16.15;;
46415;SDS011;32620;51.704;7.822;2024-01-10T08:21:51;37.63;;;14.60;;
46415;SDS011;32620;51.704;7.822;2024-01-10T08:24:18;41.40;;;15.90;;
46415;SDS011;32620;51.704;7.822;2024-01-10T08:26:44;31.58;;;13.73;;
46415;SDS011;32620;51.704;7.822;2024-01-10T08:29:12;32.28;;;16.23;;
46415;SDS011;32620;51.704;7.822;2024-01-10T08:31:37;36.30;;;16.15;;
46415;SDS011;32620;51.704;7.822;2024-01-10T08:34:04;33.28;;;15.02;;
46415;SDS011;32620;51.704;7.822;2024-01-10T08:36:29;36.75;;;15.50;;
46415;SDS011;32620;51.704;7.822;2024-01-10T08:38:55;36.22;;;15.93;;
46415;SDS011;32620;51.704;7.822;2024-01-10T08:41:20;36.40;;;16.20;;
46415;SDS011;32620;51.704;7.822;2024-01-10T08:43:46;38.53;;;16.02;;
46415;SDS011;32620;51.704;7.822;2024-01-10T08:46:12;38.60;;;16.38;;
46415;SDS011;32620;51.704;7.822;2024-01-10T08:48:37;35.72;;;17.13;;
46415;SDS011;32620;51.704;7.822;2024-01-10T08:51:03;33.30;;;15.43;;
46415;SDS011;32620;51.704;7.822;2024-01-10T08:53:29;38.38;;;16.20;;
46415;SDS011;32620;51.704;7.822;2024-01-10T08:55:55;39.17;;;17.45;;
46415;SDS011;32620;51.704;7.822;2024-01-10T08:58:20;39.75;;;17.65;;
46415;SDS011;32620;51.704;7.822;2024-01-10T09:00:46;38.03;;;17.15;;
46415;SDS011;32620;51.704;7.822;2024-01-10T09:03:12;38.80;;;17.02;;
46415;SDS011;32620;51.704;7.822;2024-01-10T09:05:39;39.60;;;19.38;;
46415;SDS011;32620;51.704;7.822;2024-01-10T09:08:06;39.83;;;17.38;;
46415;SDS011;32620;51.704;7.822;2024-01-10T09:10:32;39.35;;;18.17;;
46415;SDS011;32620;51.704;7.822;2024-01-10T09:12:59;35.17;;;16.88;;
46415;SDS011;32620;51.704;7.822;2024-01-10T09:15:25;37.83;;;17.27;;
46415;SDS011;32620;51.704;7.822;2024-01-10T09:17:50;38.60;;;18.02;;
46415;SDS011;32620;51.704;7.822;2024-01-10T09:20:17;36.92;;;17.45;;
46415;SDS011;32620;51.704;7.822;2024-01-10T09:22:45;39.85;;;16.98;;
46415;SDS011;32620;51.704;7.822;2024-01-10T09:25:10;38.50;;;17.17;;
46415;SDS011;32620;51.704;7.822;2024-01-10T09:27:38;36.88;;;17.13;;
46415;SDS011;32620;51.704;7.822;2024-01-10T09:30:06;35.30;;;17.33;;
46415;SDS011;32620;51.704;7.822;2024-01-10T09:32:33;37.50;;;18.08;;
46415;SDS011;32620;51.704;7.822;2024-01-10T09:35:00;37.65;;;18.23;;
46415;SDS011;32620;51.704;7.822;2024-01-10T09:37:25;33.53;;;16.17;;
46415;SDS011;32620;51.704;7.822;2024-01-10T09:39:51;35.95;;;16.73;;
46415;SDS011;32620;51.704;7.822;2024-01-10T09:42:17;34.75;;;16.35;;
46415;SDS011;32620;51.704;7.822;2024-01-10T09:44:44;33.15;;;16.15;;
46415;SDS011;32620;51.704;7.822;2024-01-10T09:47:11;34.15;;;15.70;;
46415;SDS011;32620;51.704;7.822;2024-01-10T09:49:40;35.28;;;16.95;;
46415;SDS011;32620;51.704;7.822;2024-01-10T09:52:10;32.53;;;16.17;;
46415;SDS011;32620;51.704;7.822;2024-01-10T09:54:38;37.20;;;17.30;;
46415;SDS011;32620;51.704;7.822;2024-01-10T09:57:05;31.38;;;15.93;;
46415;SDS011;32620;51.704;7.822;2024-01-10T09:59:31;30.92;;;14.60;;
46415;SDS011;32620;51.704;7.822;2024-01-10T10:01:58;30.00;;;14.35;;
46415;SDS011;32620;51.704;7.822;2024-01-10T10:04:27;33.53;;;16.48;;
46415;SDS011;32620;51.704;7.822;2024-01-10T10:07:01;35.90;;;15.32;;
46415;SDS011;32620;51.704;7.822;2024-01-10T10:09:28;36.22;;;16.02;;
46415;SDS011;32620;51.704;7.822;2024-01-10T10:11:55;35.38;;;16.02;;
46415;SDS011;32620;51.704;7.822;2024-01-10T10:14:22;31.00;;;15.32;;
46415;SDS011;32620;51.704;7.822;2024-01-10T10:16:51;34.83;;;15.73;;
46415;SDS011;32620;51.704;7.822;2024-01-10T10:19:24;33.47;;;17.25;;
46415;SDS011;32620;51.704;7.822;2024-01-10T10:21:50;28.38;;;14.13;;
46415;SDS011;32620;51.704;7.822;2024-01-10T10:24:16;32.53;;;14.90;;
46415;SDS011;32620;51.704;7.822;2024-01-10T10:26:42;33.88;;;15.45;;
46415;SDS011;32620;51.704;7.822;2024-01-10T10:29:08;31.35;;;14.98;;
46415;SDS011;32620;51.704;7.822;2024-01-10T10:31:34;30.20;;;15.32;;
46415;SDS011;32620;51.704;7.822;2024-01-10T10:34:01;28.23;;;14.70;;
46415;SDS011;32620;51.704;7.822;2024-01-10T10:36:27;29.25;;;14.73;;
46415;SDS011;32620;51.704;7.822;2024-01-10T10:38:56;29.63;;;15.63;;
46415;SDS011;32620;51.704;7.822;2024-01-10T10:41:25;29.77;;;14.57;;
46415;SDS011;32620;51.704;7.822;2024-01-10T10:43:52;30.15;;;15.55;;
46415;SDS011;32620;51.704;7.822;2024-01-10T10:46:19;32.22;;;15.80;;
46415;SDS011;32620;51.704;7.822;2024-01-10T10:48:48;34.47;;;15.10;;
46415;SDS011;32620;51.704;7.822;2024-01-10T10:51:45;36.55;;;15.90;;
46415;SDS011;32620;51.704;7.822;2024-01-10T10:54:01;32.95;;;15.88;;
46415;SDS011;32620;51.704;7.822;2024-01-10T10:56:29;30.83;;;15.32;;
46415;SDS011;32620;51.704;7.822;2024-01-10T10:58:56;30.20;;;15.45;;
46415;SDS011;32620;51.704;7.822;2024-01-10T11:01:22;28.75;;;14.55;;
46415;SDS011;32620;51.704;7.822;2024-01-10T11:03:48;35.45;;;16.15;;
46415;SDS011;32620;51.704;7.822;2024-01-10T11:06:14;33.38;;;15.77;;
46415;SDS011;32620;51.704;7.822;2024-01-10T11:08:43;30.98;;;16.08;;
46415;SDS011;32620;51.704;7.822;2024-01-10T11:14:21;37.10;;;17.73;;
46415;SDS011;32620;51.704;7.822;2024-01-10T11:17:24;33.15;;;16.75;;
46415;SDS011;32620;51.704;7.822;2024-01-10T11:20:13;30.92;;;15.27;;
46415;SDS011;32620;51.704;7.822;2024-01-10T11:25:50;31.73;;;15.15;;
46415;SDS011;32620;51.704;7.822;2024-01-10T11:28:16;28.63;;;14.65;;
46415;SDS011;32620;51.704;7.822;2024-01-10T11:30:49;32.22;;;16.63;;
46415;SDS011;32620;51.704;7.822;2024-01-10T11:33:19;29.85;;;15.48;;
46415;SDS011;32620;51.704;7.822;2024-01-10T11:36:17;35.60;;;16.95;;
46415;SDS011;32620;51.704;7.822;2024-01-10T11:38:40;33.53;;;16.67;;
46415;SDS011;32620;51.704;7.822;2024-01-10T11:41:10;34.05;;;16.60;;
46415;SDS011;32620;51.704;7.822;2024-01-10T11:43:37;34.40;;;16.35;;
46415;SDS011;32620;51.704;7.822;2024-01-10T11:46:05;33.40;;;17.02;;
46415;SDS011;32620;51.704;7.822;2024-01-10T11:48:31;31.58;;;14.50;;
46415;SDS011;32620;51.704;7.822;2024-01-10T11:50:58;35.58;;;15.82;;
46415;SDS011;32620;51.704;7.822;2024-01-10T11:53:40;35.20;;;17.13;;
46415;SDS011;32620;51.704;7.822;2024-01-10T11:56:08;34.10;;;17.10;;
46415;SDS011;32620;51.704;7.822;2024-01-10T11:58:52;30.45;;;14.65;;
46415;SDS011;32620;51.704;7.822;2024-01-10T12:01:25;35.33;;;15.68;;
46415;SDS011;32620;51.704;7.822;2024-01-10T12:03:52;30.27;;;15.27;;
46415;SDS011;32620;51.704;7.822;2024-01-10T12:06:18;34.63;;;16.70;;
46415;SDS011;32620;51.704;7.822;2024-01-10T12:08:46;31.10;;;14.80;;
46415;SDS011;32620;51.704;7.822;2024-01-10T12:11:11;32.45;;;15.63;;
46415;SDS011;32620;51.704;7.822;2024-01-10T12:13:37;40.80;;;17.75;;
46415;SDS011;32620;51.704;7.822;2024-01-10T12:16:04;32.50;;;15.35;;
46415;SDS011;32620;51.704;7.822;2024-01-10T12:18:30;30.60;;;15.00;;
46415;SDS011;32620;51.704;7.822;2024-01-10T12:20:55;31.05;;;14.55;;
46415;SDS011;32620;51.704;7.822;2024-01-10T12:23:21;33.13;;;15.18;;
46415;SDS011;32620;51.704;7.822;2024-01-10T12:25:48;36.50;;;14.90;;
46415;SDS011;32620;51.704;7.822;2024-01-10T12:28:15;32.63;;;14.00;;
46415;SDS011;32620;51.704;7.822;2024-01-10T12:30:41;35.90;;;14.77;;
46415;SDS011;32620;51.704;7.822;2024-01-10T12:33:08;32.58;;;14.15;;
46415;SDS011;32620;51.704;7.822;2024-01-10T12:35:34;33.50;;;14.55;;
46415;SDS011;32620;51.704;7.822;2024-01-10T12:38:00;35.13;;;14.85;;
46415;SDS011;32620;51.704;7.822;2024-01-10T12:40:25;30.88;;;14.88;;
46415;SDS011;32620;51.704;7.822;2024-01-10T12:43:07;33.42;;;15.30;;
46415;SDS011;32620;51.704;7.822;2024-01-10T12:45:34;31.67;;;15.05;;
46415;SDS011;32620;51.704;7.822;2024-01-10T12:48:00;32.45;;;15.13;;
46415;SDS011;32620;51.704;7.822;2024-01-10T12:50:27;30.75;;;14.75;;
46415;SDS011;32620;51.704;7.822;2024-01-10T12:52:53;33.88;;;15.55;;
46415;SDS011;32620;51.704;7.822;2024-01-10T12:55:18;36.60;;;14.88;;
46415;SDS011;32620;51.704;7.822;2024-01-10T12:57:44;30.30;;;14.73;;
46415;SDS011;32620;51.704;7.822;2024-01-10T13:00:10;28.77;;;12.73;;
46415;SDS011;32620;51.704;7.822;2024-01-10T13:02:36;38.13;;;14.65;;
46415;SDS011;32620;51.704;7.822;2024-01-10T13:05:03;29.98;;;13.60;;
46415;SDS011;32620;51.704;7.822;2024-01-10T13:07:29;30.95;;;13.98;;
46415;SDS011;32620;51.704;7.822;2024-01-10T13:09:59;32.90;;;14.43;;
46415;SDS011;32620;51.704;7.822;2024-01-10T13:12:24;31.65;;;13.75;;
46415;SDS011;32620;51.704;7.822;2024-01-10T13:14:50;29.63;;;14.00;;
46415;SDS011;32620;51.704;7.822;2024-01-10T13:17:15;25.33;;;12.85;;
46415;SDS011;32620;51.704;7.822;2024-01-10T13:19:41;30.20;;;14.10;;
46415;SDS011;32620;51.704;7.822;2024-01-10T13:22:10;31.25;;;15.02;;
46415;SDS011;32620;51.704;7.822;2024-01-10T13:24:38;32.97;;;14.88;;
46415;SDS011;32620;51.704;7.822;2024-01-10T13:27:04;28.75;;;12.80;;
46415;SDS011;32620;51.704;7.822;2024-01-10T13:29:30;28.55;;;14.23;;
46415;SDS011;32620;51.704;7.822;2024-01-10T13:31:55;29.92;;;14.45;;
46415;SDS011;32620;51.704;7.822;2024-01-10T13:34:21;32.33;;;13.82;;
46415;SDS011;32620;51.704;7.822;2024-01-10T13:36:46;29.85;;;14.32;;
46415;SDS011;32620;51.704;7.822;2024-01-10T13:39:15;34.13;;;14.52;;
46415;SDS011;32620;51.704;7.822;2024-01-10T13:41:42;34.92;;;15.70;;
46415;SDS011;32620;51.704;7.822;2024-01-10T13:44:08;35.72;;;15.70;;
46415;SDS011;32620;51.704;7.822;2024-01-10T13:46:34;38.00;;;16.25;;
46415;SDS011;32620;51.704;7.822;2024-01-10T13:49:00;39.53;;;16.33;;
46415;SDS011;32620;51.704;7.822;2024-01-10T13:51:26;35.65;;;15.98;;
46415;SDS011;32620;51.704;7.822;2024-01-10T13:53:52;39.88;;;17.15;;
46415;SDS011;32620;51.704;7.822;2024-01-10T13:56:17;45.22;;;18.85;;
46415;SDS011;32620;51.704;7.822;2024-01-10T13:58:43;33.10;;;16.25;;
46415;SDS011;32620;51.704;7.822;2024-01-10T14:01:09;36.72;;;16.58;;
46415;SDS011;32620;51.704;7.822;2024-01-10T14:03:34;34.88;;;16.35;;
46415;SDS011;32620;51.704;7.822;2024-01-10T14:06:01;33.58;;;16.55;;
46415;SDS011;32620;51.704;7.822;2024-01-10T14:08:26;36.67;;;16.90;;
46415;SDS011;32620;51.704;7.822;2024-01-10T14:10:52;37.25;;;15.80;;
46415;SDS011;32620;51.704;7.822;2024-01-10T14:13:18;37.72;;;17.13;;
46415;SDS011;32620;51.704;7.822;2024-01-10T14:15:44;38.05;;;16.50;;
46415;SDS011;32620;51.704;7.822;2024-01-10T14:18:10;40.40;;;18.38;;
46415;SDS011;32620;51.704;7.822;2024-01-10T14:20:35;40.28;;;17.80;;
46415;SDS011;32620;51.704;7.822;2024-01-10T14:23:01;41.53;;;17.77;;
46415;SDS011;32620;51.704;7.822;2024-01-10T14:25:26;38.95;;;18.08;;
46415;SDS011;32620;51.704;7.822;2024-01-10T14:27:52;38.22;;;17.60;;